WXM80 ListenWXM80 Stop

You find our weather info also at:

UK Metoffice

WeatherCloud

Weather Underground

Northeastern Weather Network

AWEKAS

Citizen Weather Observer Program (CWOP)

HAMweather, WeatherForYou, PWS Weather


Weather Underground History page Text

Daily Summary for July 21, 2017 Units:  Both    English   Metric
« Previous Day
Next Day »
Daily Weekly Monthly Yearly Custom
  High: Low: Average:
Temperature: 94.4 °F /  34.7 °C 74.8 °F /  23.8 °C 83.9 °F /  28.8 °C
Dew Point: 77.2 °F /  25.1 °C 68.3 °F /  20.2 °C 71.1 °F /  21.7 °C
Humidity: 86 % 45 % 67 %
Wind Speed: 6.4 mph /  10.3 km/h - 1.3 mph /  2.1 km/h
Wind Gust: 10.4 mph /  16.7 km/h - -
Wind:- - West
Pressure: 29.87 in /  1011.4 hPa 29.79 in /  1008.7 hPa -
Precipitation: 0.00 in /  0 mm    
Historical Graphs
 
 
Tabular Data for July 21, 2017
Time Temperature Dew Point Pressure Wind Wind Speed Wind Gust Humidity Rainfall Rate (Hourly)
00:04 78.9 °F /  26.1 °C 69.1 °F /  20.6 °C 29.80 in /  1009 hPa SW 1.0 mph /  1.6 km/h 3.5 mph /  5.6 km/h 72 % 0.00 in /  0 mm
00:09 78.8 °F /  26 °C 69.0 °F /  20.6 °C 29.81 in /  1009.4 hPa SW 0.5 mph /  0.8 km/h 2.3 mph /  3.7 km/h 72 % 0.00 in /  0 mm
00:14 78.8 °F /  26 °C 69.0 °F /  20.6 °C 29.81 in /  1009.4 hPa SW 1.5 mph /  2.4 km/h 5.8 mph /  9.3 km/h 72 % 0.00 in /  0 mm
00:19 78.7 °F /  25.9 °C 68.9 °F /  20.5 °C 29.81 in /  1009.4 hPa SW 3.6 mph /  5.8 km/h 5.8 mph /  9.3 km/h 72 % 0.00 in /  0 mm
00:24 78.7 °F /  25.9 °C 68.9 °F /  20.5 °C 29.81 in /  1009.4 hPa WSW 3.5 mph /  5.6 km/h 8.1 mph /  13 km/h 72 % 0.00 in /  0 mm
00:29 78.6 °F /  25.9 °C 69.2 °F /  20.7 °C 29.81 in /  1009.4 hPa WSW 0.8 mph /  1.3 km/h 2.3 mph /  3.7 km/h 73 % 0.00 in /  0 mm
00:34 78.6 °F /  25.9 °C 69.2 °F /  20.7 °C 29.81 in /  1009.4 hPa SSW 1.2 mph /  1.9 km/h 4.0 mph /  6.4 km/h 73 % 0.00 in /  0 mm
00:40 78.6 °F /  25.9 °C 69.2 °F /  20.7 °C 29.81 in /  1009.4 hPa SW 2.2 mph /  3.5 km/h 6.9 mph /  11.1 km/h 73 % 0.00 in /  0 mm
00:41 78.6 °F /  25.9 °C 69.2 °F /  20.7 °C 29.81 in /  1009.4 hPa SW 1.0 mph /  1.6 km/h 7.0 mph /  11.3 km/h 73 % 0.00 in /  0 mm
00:46 78.5 °F /  25.8 °C 69.1 °F /  20.6 °C 29.81 in /  1009.4 hPa SW 2.0 mph /  3.2 km/h 5.0 mph /  8 km/h 73 % 0.00 in /  0 mm
00:51 78.5 °F /  25.8 °C 69.1 °F /  20.6 °C 29.81 in /  1009.4 hPa Calm   4.0 mph /  6.4 km/h 73 % 0.00 in /  0 mm
00:56 78.5 °F /  25.8 °C 69.1 °F /  20.6 °C 29.81 in /  1009.4 hPa WSW 1.0 mph /  1.6 km/h 7.0 mph /  11.3 km/h 73 % 0.00 in /  0 mm
01:01 78.5 °F /  25.8 °C 69.1 °F /  20.6 °C 29.81 in /  1009.4 hPa SSW 1.4 mph /  2.3 km/h 4.6 mph /  7.4 km/h 73 % 0.00 in /  0 mm
01:06 78.4 °F /  25.8 °C 69.4 °F /  20.8 °C 29.82 in /  1009.7 hPa WSW 0.1 mph /  0.2 km/h 2.3 mph /  3.7 km/h 74 % 0.00 in /  0 mm
01:11 78.4 °F /  25.8 °C 69.0 °F /  20.6 °C 29.82 in /  1009.7 hPa West 0.2 mph /  0.3 km/h 3.5 mph /  5.6 km/h 73 % 0.00 in /  0 mm
01:16 78.4 °F /  25.8 °C 69.4 °F /  20.8 °C 29.82 in /  1009.7 hPa Calm   3.5 mph /  5.6 km/h 74 % 0.00 in /  0 mm
01:21 78.3 °F /  25.7 °C 69.3 °F /  20.7 °C 29.82 in /  1009.7 hPa WSW 0.1 mph /  0.2 km/h 5.0 mph /  8 km/h 74 % 0.00 in /  0 mm
01:26 78.3 °F /  25.7 °C 69.3 °F /  20.7 °C 29.82 in /  1009.7 hPa SW 1.9 mph /  3.1 km/h 3.5 mph /  5.6 km/h 74 % 0.00 in /  0 mm
01:31 78.3 °F /  25.7 °C 69.3 °F /  20.7 °C 29.83 in /  1010 hPa West 0.2 mph /  0.3 km/h 1.2 mph /  1.9 km/h 74 % 0.00 in /  0 mm
01:36 78.2 °F /  25.7 °C 69.2 °F /  20.7 °C 29.83 in /  1010 hPa West 2.3 mph /  3.7 km/h 3.5 mph /  5.6 km/h 74 % 0.00 in /  0 mm
01:41 78.2 °F /  25.7 °C 69.2 °F /  20.7 °C 29.82 in /  1009.7 hPa WNW 1.1 mph /  1.8 km/h 3.5 mph /  5.6 km/h 74 % 0.00 in /  0 mm
01:46 78.2 °F /  25.7 °C 69.2 °F /  20.7 °C 29.83 in /  1010 hPa WNW 0.3 mph /  0.5 km/h 2.3 mph /  3.7 km/h 74 % 0.00 in /  0 mm
01:51 78.2 °F /  25.7 °C 69.6 °F /  20.9 °C 29.83 in /  1010 hPa WNW 0.2 mph /  0.3 km/h 1.2 mph /  1.9 km/h 75 % 0.00 in /  0 mm
01:56 78.3 °F /  25.7 °C 69.7 °F /  20.9 °C 29.82 in /  1009.7 hPa Calm     75 % 0.00 in /  0 mm
02:01 78.3 °F /  25.7 °C 69.7 °F /  20.9 °C 29.82 in /  1009.7 hPa Calm   1.2 mph /  1.9 km/h 75 % 0.00 in /  0 mm
02:06 78.3 °F /  25.7 °C 69.7 °F /  20.9 °C 29.82 in /  1009.7 hPa WSW 0.1 mph /  0.2 km/h   75 % 0.00 in /  0 mm
02:11 78.3 °F /  25.7 °C 69.7 °F /  20.9 °C 29.82 in /  1009.7 hPa Calm   2.3 mph /  3.7 km/h 75 % 0.00 in /  0 mm
02:16 78.3 °F /  25.7 °C 69.7 °F /  20.9 °C 29.82 in /  1009.7 hPa WSW 0.2 mph /  0.3 km/h 2.0 mph /  3.2 km/h 75 % 0.00 in /  0 mm
02:21 78.3 °F /  25.7 °C 69.7 °F /  20.9 °C 29.82 in /  1009.7 hPa NW 1.3 mph /  2.1 km/h 3.5 mph /  5.6 km/h 75 % 0.00 in /  0 mm
02:26 78.2 °F /  25.7 °C 69.6 °F /  20.9 °C 29.82 in /  1009.7 hPa SSW 0.5 mph /  0.8 km/h 1.2 mph /  1.9 km/h 75 % 0.00 in /  0 mm
02:31 78.2 °F /  25.7 °C 70.0 °F /  21.1 °C 29.83 in /  1010 hPa WSW 1.6 mph /  2.6 km/h 3.5 mph /  5.6 km/h 76 % 0.00 in /  0 mm
02:36 78.1 °F /  25.6 °C 69.5 °F /  20.8 °C 29.82 in /  1009.7 hPa Calm     75 % 0.00 in /  0 mm
02:41 78.0 °F /  25.6 °C 69.8 °F /  21 °C 29.82 in /  1009.7 hPa Calm     76 % 0.00 in /  0 mm
02:46 77.9 °F /  25.5 °C 69.7 °F /  20.9 °C 29.82 in /  1009.7 hPa WNW 0.1 mph /  0.2 km/h 1.2 mph /  1.9 km/h 76 % 0.00 in /  0 mm
02:51 77.9 °F /  25.5 °C 69.7 °F /  20.9 °C 29.82 in /  1009.7 hPa WNW 0.2 mph /  0.3 km/h 1.0 mph /  1.6 km/h 76 % 0.00 in /  0 mm
02:56 77.8 °F /  25.4 °C 70.0 °F /  21.1 °C 29.82 in /  1009.7 hPa Calm   1.2 mph /  1.9 km/h 77 % 0.00 in /  0 mm
03:01 77.7 °F /  25.4 °C 69.9 °F /  21.1 °C 29.82 in /  1009.7 hPa WNW 0.2 mph /  0.3 km/h 1.0 mph /  1.6 km/h 77 % 0.00 in /  0 mm
03:07 77.6 °F /  25.3 °C 69.8 °F /  21 °C 29.82 in /  1009.7 hPa Calm     77 % 0.00 in /  0 mm
03:12 77.5 °F /  25.3 °C 69.7 °F /  20.9 °C 29.82 in /  1009.7 hPa WNW 0.1 mph /  0.2 km/h 1.2 mph /  1.9 km/h 77 % 0.00 in /  0 mm
03:17 77.4 °F /  25.2 °C 69.6 °F /  20.9 °C 29.82 in /  1009.7 hPa WNW 0.2 mph /  0.3 km/h 1.2 mph /  1.9 km/h 77 % 0.00 in /  0 mm
03:22 77.3 °F /  25.2 °C 69.5 °F /  20.8 °C 29.82 in /  1009.7 hPa Calm     77 % 0.00 in /  0 mm
03:27 77.2 °F /  25.1 °C 69.8 °F /  21 °C 29.82 in /  1009.7 hPa Calm   1.0 mph /  1.6 km/h 78 % 0.00 in /  0 mm
03:28 77.2 °F /  25.1 °C 69.8 °F /  21 °C 29.82 in /  1009.7 hPa Calm   1.2 mph /  1.9 km/h 78 % 0.00 in /  0 mm
03:33 77.1 °F /  25.1 °C 69.7 °F /  20.9 °C 29.82 in /  1009.7 hPa Calm   1.2 mph /  1.9 km/h 78 % 0.00 in /  0 mm
03:38 76.9 °F /  24.9 °C 69.9 °F /  21.1 °C 29.82 in /  1009.7 hPa Calm     79 % 0.00 in /  0 mm
03:43 76.8 °F /  24.9 °C 69.8 °F /  21 °C 29.82 in /  1009.7 hPa WNW 0.1 mph /  0.2 km/h 1.2 mph /  1.9 km/h 79 % 0.00 in /  0 mm
03:48 76.6 °F /  24.8 °C 69.6 °F /  20.9 °C 29.82 in /  1009.7 hPa Calm     79 % 0.00 in /  0 mm
03:53 76.5 °F /  24.7 °C 69.5 °F /  20.8 °C 29.82 in /  1009.7 hPa WNW 0.2 mph /  0.3 km/h 1.2 mph /  1.9 km/h 79 % 0.00 in /  0 mm
03:58 76.3 °F /  24.6 °C 69.3 °F /  20.7 °C 29.82 in /  1009.7 hPa Calm     79 % 0.00 in /  0 mm
04:03 76.2 °F /  24.6 °C 69.6 °F /  20.9 °C 29.82 in /  1009.7 hPa Calm     80 % 0.00 in /  0 mm
04:08 76.0 °F /  24.4 °C 69.4 °F /  20.8 °C 29.82 in /  1009.7 hPa Calm     80 % 0.00 in /  0 mm
04:13 75.9 °F /  24.4 °C 69.6 °F /  20.9 °C 29.82 in /  1009.7 hPa Calm     81 % 0.00 in /  0 mm
04:18 75.8 °F /  24.3 °C 69.6 °F /  20.9 °C 29.81 in /  1009.4 hPa Calm     81 % 0.00 in /  0 mm
04:23 75.7 °F /  24.3 °C 69.5 °F /  20.8 °C 29.82 in /  1009.7 hPa Calm     81 % 0.00 in /  0 mm
04:28 75.6 °F /  24.2 °C 69.7 °F /  20.9 °C 29.82 in /  1009.7 hPa Calm     82 % 0.00 in /  0 mm
04:33 75.5 °F /  24.2 °C 69.6 °F /  20.9 °C 29.81 in /  1009.4 hPa Calm     82 % 0.00 in /  0 mm
04:38 75.3 °F /  24.1 °C 69.4 °F /  20.8 °C 29.82 in /  1009.7 hPa Calm     82 % 0.00 in /  0 mm
04:43 75.2 °F /  24 °C 69.7 °F /  20.9 °C 29.81 in /  1009.4 hPa West 0.8 mph /  1.3 km/h 2.0 mph /  3.2 km/h 83 % 0.00 in /  0 mm
04:48 75.1 °F /  23.9 °C 69.6 °F /  20.9 °C 29.81 in /  1009.4 hPa West 0.9 mph /  1.4 km/h 1.0 mph /  1.6 km/h 83 % 0.00 in /  0 mm
04:53 74.9 °F /  23.8 °C 69.7 °F /  20.9 °C 29.81 in /  1009.4 hPa West 0.4 mph /  0.6 km/h 1.2 mph /  1.9 km/h 84 % 0.00 in /  0 mm
04:59 74.9 °F /  23.8 °C 69.7 °F /  20.9 °C 29.81 in /  1009.4 hPa West 0.3 mph /  0.5 km/h 2.3 mph /  3.7 km/h 84 % 0.00 in /  0 mm
05:04 74.8 °F /  23.8 °C 69.6 °F /  20.9 °C 29.82 in /  1009.7 hPa West 0.4 mph /  0.6 km/h 2.0 mph /  3.2 km/h 84 % 0.00 in /  0 mm
05:09 74.8 °F /  23.8 °C 70.0 °F /  21.1 °C 29.82 in /  1009.7 hPa West 0.3 mph /  0.5 km/h 2.3 mph /  3.7 km/h 85 % 0.00 in /  0 mm
05:14 74.8 °F /  23.8 °C 69.6 °F /  20.9 °C 29.82 in /  1009.7 hPa West 1.1 mph /  1.8 km/h 2.3 mph /  3.7 km/h 84 % 0.00 in /  0 mm
05:19 74.8 °F /  23.8 °C 70.0 °F /  21.1 °C 29.82 in /  1009.7 hPa WSW 1.8 mph /  2.9 km/h 4.6 mph /  7.4 km/h 85 % 0.00 in /  0 mm
05:24 74.8 °F /  23.8 °C 69.6 °F /  20.9 °C 29.82 in /  1009.7 hPa NW 2.4 mph /  3.9 km/h 3.5 mph /  5.6 km/h 84 % 0.00 in /  0 mm
05:29 74.8 °F /  23.8 °C 70.0 °F /  21.1 °C 29.82 in /  1009.7 hPa WNW 2.4 mph /  3.9 km/h 4.6 mph /  7.4 km/h 85 % 0.00 in /  0 mm
05:34 74.8 °F /  23.8 °C 70.0 °F /  21.1 °C 29.82 in /  1009.7 hPa WNW 2.6 mph /  4.2 km/h 4.6 mph /  7.4 km/h 85 % 0.00 in /  0 mm
05:39 74.8 °F /  23.8 °C 70.0 °F /  21.1 °C 29.83 in /  1010 hPa WNW 0.2 mph /  0.3 km/h 2.3 mph /  3.7 km/h 85 % 0.00 in /  0 mm
05:44 74.8 °F /  23.8 °C 70.0 °F /  21.1 °C 29.83 in /  1010 hPa West 0.5 mph /  0.8 km/h 3.5 mph /  5.6 km/h 85 % 0.00 in /  0 mm
05:49 74.9 °F /  23.8 °C 70.1 °F /  21.2 °C 29.83 in /  1010 hPa West 0.9 mph /  1.4 km/h 2.3 mph /  3.7 km/h 85 % 0.00 in /  0 mm
05:54 74.9 °F /  23.8 °C 70.1 °F /  21.2 °C 29.83 in /  1010 hPa Calm     85 % 0.00 in /  0 mm
05:59 74.9 °F /  23.8 °C 70.1 °F /  21.2 °C 29.83 in /  1010 hPa West 0.5 mph /  0.8 km/h 1.2 mph /  1.9 km/h 85 % 0.00 in /  0 mm
06:04 74.9 °F /  23.8 °C 70.1 °F /  21.2 °C 29.83 in /  1010 hPa West 1.3 mph /  2.1 km/h 2.3 mph /  3.7 km/h 85 % 0.00 in /  0 mm
06:09 74.9 °F /  23.8 °C 70.1 °F /  21.2 °C 29.83 in /  1010 hPa SW 0.5 mph /  0.8 km/h 1.2 mph /  1.9 km/h 85 % 0.00 in /  0 mm
06:14 74.9 °F /  23.8 °C 70.1 °F /  21.2 °C 29.83 in /  1010 hPa SSW 1.3 mph /  2.1 km/h 2.3 mph /  3.7 km/h 85 % 0.00 in /  0 mm
06:19 74.9 °F /  23.8 °C 70.4 °F /  21.3 °C 29.83 in /  1010 hPa Calm     86 % 0.00 in /  0 mm
06:24 74.9 °F /  23.8 °C 70.1 °F /  21.2 °C 29.83 in /  1010 hPa SSW 0.1 mph /  0.2 km/h 1.2 mph /  1.9 km/h 85 % 0.00 in /  0 mm
06:29 74.9 °F /  23.8 °C 70.4 °F /  21.3 °C 29.83 in /  1010 hPa SSW 0.6 mph /  1 km/h 3.5 mph /  5.6 km/h 86 % 0.00 in /  0 mm
06:34 74.9 °F /  23.8 °C 70.4 °F /  21.3 °C 29.83 in /  1010 hPa West 0.8 mph /  1.3 km/h 3.5 mph /  5.6 km/h 86 % 0.00 in /  0 mm
06:39 75.0 °F /  23.9 °C 70.5 °F /  21.4 °C 29.83 in /  1010 hPa West 1.2 mph /  1.9 km/h 2.3 mph /  3.7 km/h 86 % 0.00 in /  0 mm
06:44 75.2 °F /  24 °C 70.7 °F /  21.5 °C 29.83 in /  1010 hPa Calm   2.3 mph /  3.7 km/h 86 % 0.00 in /  0 mm
06:50 75.4 °F /  24.1 °C 70.9 °F /  21.6 °C 29.83 in /  1010 hPa SW 0.2 mph /  0.3 km/h 3.5 mph /  5.6 km/h 86 % 0.00 in /  0 mm
06:55 75.6 °F /  24.2 °C 71.1 °F /  21.7 °C 29.84 in /  1010.4 hPa SW 0.7 mph /  1.1 km/h 3.5 mph /  5.6 km/h 86 % 0.00 in /  0 mm
07:00 75.9 °F /  24.4 °C 71.1 °F /  21.7 °C 29.84 in /  1010.4 hPa Calm     85 % 0.00 in /  0 mm
07:05 76.3 °F /  24.6 °C 71.5 °F /  21.9 °C 29.84 in /  1010.4 hPa Calm   3.5 mph /  5.6 km/h 85 % 0.00 in /  0 mm
07:10 76.7 °F /  24.8 °C 71.5 °F /  21.9 °C 29.84 in /  1010.4 hPa WNW 0.3 mph /  0.5 km/h 1.2 mph /  1.9 km/h 84 % 0.00 in /  0 mm
07:15 77.0 °F /  25 °C 71.4 °F /  21.9 °C 29.84 in /  1010.4 hPa Calm     83 % 0.00 in /  0 mm
07:20 77.3 °F /  25.2 °C 71.7 °F /  22.1 °C 29.84 in /  1010.4 hPa SW 0.7 mph /  1.1 km/h 2.3 mph /  3.7 km/h 83 % 0.00 in /  0 mm
07:25 77.6 °F /  25.3 °C 71.7 °F /  22.1 °C 29.84 in /  1010.4 hPa SW 0.3 mph /  0.5 km/h 2.3 mph /  3.7 km/h 82 % 0.00 in /  0 mm
07:30 77.9 °F /  25.5 °C 72.0 °F /  22.2 °C 29.84 in /  1010.4 hPa Calm   2.3 mph /  3.7 km/h 82 % 0.00 in /  0 mm
07:35 78.0 °F /  25.6 °C 71.7 °F /  22.1 °C 29.84 in /  1010.4 hPa SW 0.2 mph /  0.3 km/h   81 % 0.00 in /  0 mm
07:40 78.2 °F /  25.7 °C 71.5 °F /  21.9 °C 29.84 in /  1010.4 hPa SW 0.3 mph /  0.5 km/h 3.5 mph /  5.6 km/h 80 % 0.00 in /  0 mm
07:45 78.3 °F /  25.7 °C 71.6 °F /  22 °C 29.84 in /  1010.4 hPa West 1.0 mph /  1.6 km/h 3.5 mph /  5.6 km/h 80 % 0.00 in /  0 mm
07:50 78.4 °F /  25.8 °C 71.7 °F /  22.1 °C 29.84 in /  1010.4 hPa NW 0.3 mph /  0.5 km/h 4.6 mph /  7.4 km/h 80 % 0.00 in /  0 mm
07:55 78.5 °F /  25.8 °C 71.8 °F /  22.1 °C 29.84 in /  1010.4 hPa WSW 0.1 mph /  0.2 km/h 1.2 mph /  1.9 km/h 80 % 0.00 in /  0 mm
08:00 78.5 °F /  25.8 °C 71.8 °F /  22.1 °C 29.85 in /  1010.7 hPa WSW 1.6 mph /  2.6 km/h 4.6 mph /  7.4 km/h 80 % 0.00 in /  0 mm
08:05 78.5 °F /  25.8 °C 71.4 °F /  21.9 °C 29.85 in /  1010.7 hPa WNW 2.0 mph /  3.2 km/h 5.8 mph /  9.3 km/h 79 % 0.00 in /  0 mm
08:10 78.5 °F /  25.8 °C 71.4 °F /  21.9 °C 29.85 in /  1010.7 hPa SW 3.4 mph /  5.5 km/h 5.0 mph /  8 km/h 79 % 0.00 in /  0 mm
08:15 78.4 °F /  25.8 °C 71.7 °F /  22.1 °C 29.85 in /  1010.7 hPa WNW 2.8 mph /  4.5 km/h 6.0 mph /  9.7 km/h 80 % 0.00 in /  0 mm
08:20 78.4 °F /  25.8 °C 72.1 °F /  22.3 °C 29.86 in /  1011.1 hPa NW 1.0 mph /  1.6 km/h 3.5 mph /  5.6 km/h 81 % 0.00 in /  0 mm
08:25 78.4 °F /  25.8 °C 71.7 °F /  22.1 °C 29.86 in /  1011.1 hPa WNW 4.8 mph /  7.7 km/h 6.9 mph /  11.1 km/h 80 % 0.00 in /  0 mm
08:30 78.4 °F /  25.8 °C 71.7 °F /  22.1 °C 29.86 in /  1011.1 hPa WNW 3.2 mph /  5.1 km/h 4.6 mph /  7.4 km/h 80 % 0.00 in /  0 mm
08:35 78.5 °F /  25.8 °C 71.8 °F /  22.1 °C 29.86 in /  1011.1 hPa West 3.9 mph /  6.3 km/h 9.2 mph /  14.8 km/h 80 % 0.00 in /  0 mm
08:40 78.6 °F /  25.9 °C 71.5 °F /  21.9 °C 29.86 in /  1011.1 hPa WNW 1.0 mph /  1.6 km/h 3.5 mph /  5.6 km/h 79 % 0.00 in /  0 mm
08:45 78.7 °F /  25.9 °C 71.6 °F /  22 °C 29.86 in /  1011.1 hPa WNW 3.4 mph /  5.5 km/h 7.0 mph /  11.3 km/h 79 % 0.00 in /  0 mm
08:50 78.8 °F /  26 °C 71.7 °F /  22.1 °C 29.86 in /  1011.1 hPa WNW 0.7 mph /  1.1 km/h 3.5 mph /  5.6 km/h 79 % 0.00 in /  0 mm
08:56 78.9 °F /  26.1 °C 71.5 °F /  21.9 °C 29.86 in /  1011.1 hPa West 3.4 mph /  5.5 km/h 9.2 mph /  14.8 km/h 78 % 0.00 in /  0 mm
09:01 79.1 °F /  26.2 °C 71.6 °F /  22 °C 29.86 in /  1011.1 hPa West 0.5 mph /  0.8 km/h 5.8 mph /  9.3 km/h 78 % 0.00 in /  0 mm
09:06 79.1 °F /  26.2 °C 71.6 °F /  22 °C 29.86 in /  1011.1 hPa NW 2.5 mph /  4 km/h 8.1 mph /  13 km/h 78 % 0.00 in /  0 mm
09:11 79.3 °F /  26.3 °C 71.8 °F /  22.1 °C 29.86 in /  1011.1 hPa WNW 2.0 mph /  3.2 km/h 5.8 mph /  9.3 km/h 78 % 0.00 in /  0 mm
09:16 79.5 °F /  26.4 °C 72.0 °F /  22.2 °C 29.86 in /  1011.1 hPa WNW 2.4 mph /  3.9 km/h 7.0 mph /  11.3 km/h 78 % 0.00 in /  0 mm
09:21 79.7 °F /  26.5 °C 72.2 °F /  22.3 °C 29.86 in /  1011.1 hPa NW 4.6 mph /  7.4 km/h 8.1 mph /  13 km/h 78 % 0.00 in /  0 mm
09:26 79.8 °F /  26.6 °C 71.9 °F /  22.2 °C 29.86 in /  1011.1 hPa WNW 5.3 mph /  8.5 km/h 9.2 mph /  14.8 km/h 77 % 0.00 in /  0 mm
09:31 79.9 °F /  26.6 °C 72.0 °F /  22.2 °C 29.86 in /  1011.1 hPa WNW 2.9 mph /  4.7 km/h 5.0 mph /  8 km/h 77 % 0.00 in /  0 mm
09:36 80.1 °F /  26.7 °C 72.2 °F /  22.3 °C 29.86 in /  1011.1 hPa SSW 1.5 mph /  2.4 km/h 4.6 mph /  7.4 km/h 77 % 0.00 in /  0 mm
09:41 80.3 °F /  26.8 °C 72.4 °F /  22.4 °C 29.87 in /  1011.4 hPa WNW 4.4 mph /  7.1 km/h 8.1 mph /  13 km/h 77 % 0.00 in /  0 mm
09:45 80.5 °F /  26.9 °C 72.2 °F /  22.3 °C 29.87 in /  1011.4 hPa WNW 4.3 mph /  6.9 km/h 6.9 mph /  11.1 km/h 76 % 0.00 in /  0 mm
09:50 81.0 °F /  27.2 °C 72.3 °F /  22.4 °C 29.86 in /  1011.1 hPa WNW 2.5 mph /  4 km/h 9.2 mph /  14.8 km/h 75 % 0.00 in /  0 mm
09:55 81.5 °F /  27.5 °C 72.8 °F /  22.7 °C 29.86 in /  1011.1 hPa WNW 3.2 mph /  5.1 km/h 5.8 mph /  9.3 km/h 75 % 0.00 in /  0 mm
10:00 82.0 °F /  27.8 °C 73.7 °F /  23.2 °C 29.86 in /  1011.1 hPa West 1.6 mph /  2.6 km/h 6.9 mph /  11.1 km/h 76 % 0.00 in /  0 mm
10:05 82.7 °F /  28.2 °C 73.6 °F /  23.1 °C 29.86 in /  1011.1 hPa NW 2.3 mph /  3.7 km/h 6.9 mph /  11.1 km/h 74 % 0.00 in /  0 mm
10:10 83.4 °F /  28.6 °C 73.4 °F /  23 °C 29.86 in /  1011.1 hPa NW 2.8 mph /  4.5 km/h 6.9 mph /  11.1 km/h 72 % 0.00 in /  0 mm
10:15 84.3 °F /  29.1 °C 73.4 °F /  23 °C 29.86 in /  1011.1 hPa WNW 4.8 mph /  7.7 km/h 6.9 mph /  11.1 km/h 70 % 0.00 in /  0 mm
10:20 85.1 °F /  29.5 °C 73.3 °F /  22.9 °C 29.86 in /  1011.1 hPa WNW 4.9 mph /  7.9 km/h 6.9 mph /  11.1 km/h 68 % 0.00 in /  0 mm
10:25 85.9 °F /  29.9 °C 74.1 °F /  23.4 °C 29.86 in /  1011.1 hPa NW 2.4 mph /  3.9 km/h 5.0 mph /  8 km/h 68 % 0.00 in /  0 mm
10:30 86.5 °F /  30.3 °C 73.8 °F /  23.2 °C 29.86 in /  1011.1 hPa NW 2.6 mph /  4.2 km/h 4.6 mph /  7.4 km/h 66 % 0.00 in /  0 mm
10:35 87.1 °F /  30.6 °C 73.9 °F /  23.3 °C 29.86 in /  1011.1 hPa WNW 0.9 mph /  1.4 km/h 3.5 mph /  5.6 km/h 65 % 0.00 in /  0 mm
10:40 87.5 °F /  30.8 °C 72.9 °F /  22.7 °C 29.86 in /  1011.1 hPa SW 3.9 mph /  6.3 km/h 9.2 mph /  14.8 km/h 62 % 0.00 in /  0 mm
10:46 87.9 °F /  31.1 °C 73.7 °F /  23.2 °C 29.86 in /  1011.1 hPa WSW 3.0 mph /  4.8 km/h 8.0 mph /  12.9 km/h 63 % 0.00 in /  0 mm
10:50 88.3 °F /  31.3 °C 73.6 °F /  23.1 °C 29.86 in /  1011.1 hPa WSW 2.0 mph /  3.2 km/h 6.0 mph /  9.7 km/h 62 % 0.00 in /  0 mm
10:56 88.8 °F /  31.6 °C 74.5 °F /  23.6 °C 29.86 in /  1011.1 hPa West 1.0 mph /  1.6 km/h 7.0 mph /  11.3 km/h 63 % 0.00 in /  0 mm
11:01 89.3 °F /  31.8 °C 73.6 °F /  23.1 °C 29.86 in /  1011.1 hPa West 2.9 mph /  4.7 km/h 5.8 mph /  9.3 km/h 60 % 0.00 in /  0 mm
11:06 89.5 °F /  31.9 °C 73.8 °F /  23.2 °C 29.86 in /  1011.1 hPa WNW 0.8 mph /  1.3 km/h 3.5 mph /  5.6 km/h 60 % 0.00 in /  0 mm
11:11 90.1 °F /  32.3 °C 77.2 °F /  25.1 °C 29.86 in /  1011.1 hPa WNW 0.1 mph /  0.2 km/h 1.2 mph /  1.9 km/h 66 % 0.00 in /  0 mm
11:16 90.5 °F /  32.5 °C 77.1 °F /  25.1 °C 29.86 in /  1011.1 hPa WNW 0.2 mph /  0.3 km/h 1.2 mph /  1.9 km/h 65 % 0.00 in /  0 mm
11:21 90.7 °F /  32.6 °C 75.9 °F /  24.4 °C 29.86 in /  1011.1 hPa SW 1.5 mph /  2.4 km/h 6.9 mph /  11.1 km/h 62 % 0.00 in /  0 mm
11:26 91.0 °F /  32.8 °C 76.7 °F /  24.8 °C 29.85 in /  1010.7 hPa West 0.2 mph /  0.3 km/h 3.0 mph /  4.8 km/h 63 % 0.00 in /  0 mm
11:27 91.0 °F /  32.8 °C 73.7 °F /  23.2 °C 29.85 in /  1010.7 hPa West 0.8 mph /  1.3 km/h 3.5 mph /  5.6 km/h 57 % 0.00 in /  0 mm
11:32 91.0 °F /  32.8 °C 76.2 °F /  24.6 °C 29.85 in /  1010.7 hPa WNW 0.7 mph /  1.1 km/h 2.3 mph /  3.7 km/h 62 % 0.00 in /  0 mm
11:37 91.1 °F /  32.8 °C 75.8 °F /  24.3 °C 29.85 in /  1010.7 hPa SW 1.8 mph /  2.9 km/h 4.0 mph /  6.4 km/h 61 % 0.00 in /  0 mm
11:42 91.1 °F /  32.8 °C 74.3 °F /  23.5 °C 29.85 in /  1010.7 hPa SW 3.5 mph /  5.6 km/h 5.8 mph /  9.3 km/h 58 % 0.00 in /  0 mm
11:47 91.1 °F /  32.8 °C 74.3 °F /  23.5 °C 29.84 in /  1010.4 hPa WNW 1.7 mph /  2.7 km/h 3.5 mph /  5.6 km/h 58 % 0.00 in /  0 mm
11:52 91.2 °F /  32.9 °C 73.8 °F /  23.2 °C 29.85 in /  1010.7 hPa WSW 2.0 mph /  3.2 km/h 3.5 mph /  5.6 km/h 57 % 0.00 in /  0 mm
11:57 91.2 °F /  32.9 °C 74.9 °F /  23.8 °C 29.85 in /  1010.7 hPa SSW 0.1 mph /  0.2 km/h 2.0 mph /  3.2 km/h 59 % 0.00 in /  0 mm
12:02 91.3 °F /  32.9 °C 76.0 °F /  24.4 °C 29.85 in /  1010.7 hPa WNW 1.2 mph /  1.9 km/h 3.5 mph /  5.6 km/h 61 % 0.00 in /  0 mm
12:07 91.4 °F /  33 °C 75.6 °F /  24.2 °C 29.84 in /  1010.4 hPa WNW 1.9 mph /  3.1 km/h 3.5 mph /  5.6 km/h 60 % 0.00 in /  0 mm
12:12 91.5 °F /  33.1 °C 76.6 °F /  24.8 °C 29.84 in /  1010.4 hPa WNW 1.5 mph /  2.4 km/h 5.0 mph /  8 km/h 62 % 0.00 in /  0 mm
12:17 91.6 °F /  33.1 °C 75.2 °F /  24 °C 29.84 in /  1010.4 hPa WNW 1.6 mph /  2.6 km/h 4.0 mph /  6.4 km/h 59 % 0.00 in /  0 mm
12:22 91.8 °F /  33.2 °C 74.4 °F /  23.6 °C 29.84 in /  1010.4 hPa WNW 0.2 mph /  0.3 km/h 4.6 mph /  7.4 km/h 57 % 0.00 in /  0 mm
12:27 92.0 °F /  33.3 °C 74.1 °F /  23.4 °C 29.84 in /  1010.4 hPa WNW 1.4 mph /  2.3 km/h 2.3 mph /  3.7 km/h 56 % 0.00 in /  0 mm
12:33 92.2 °F /  33.4 °C 73.2 °F /  22.9 °C 29.84 in /  1010.4 hPa West 1.5 mph /  2.4 km/h 3.5 mph /  5.6 km/h 54 % 0.00 in /  0 mm
12:38 92.4 °F /  33.6 °C 76.5 °F /  24.7 °C 29.84 in /  1010.4 hPa NW 0.1 mph /  0.2 km/h 6.9 mph /  11.1 km/h 60 % 0.00 in /  0 mm
12:43 92.6 °F /  33.7 °C 74.6 °F /  23.7 °C 29.84 in /  1010.4 hPa NW 2.1 mph /  3.4 km/h 4.6 mph /  7.4 km/h 56 % 0.00 in /  0 mm
12:48 92.8 °F /  33.8 °C 74.8 °F /  23.8 °C 29.84 in /  1010.4 hPa WNW 2.8 mph /  4.5 km/h 4.0 mph /  6.4 km/h 56 % 0.00 in /  0 mm
12:53 93.0 °F /  33.9 °C 75.0 °F /  23.9 °C 29.84 in /  1010.4 hPa WNW 2.8 mph /  4.5 km/h 5.0 mph /  8 km/h 56 % 0.00 in /  0 mm
12:58 93.1 °F /  33.9 °C 72.9 °F /  22.7 °C 29.84 in /  1010.4 hPa WNW 3.4 mph /  5.5 km/h 5.8 mph /  9.3 km/h 52 % 0.00 in /  0 mm
13:03 93.1 °F /  33.9 °C 73.4 °F /  23 °C 29.84 in /  1010.4 hPa WNW 3.5 mph /  5.6 km/h 4.0 mph /  6.4 km/h 53 % 0.00 in /  0 mm
13:08 93.1 °F /  33.9 °C 72.9 °F /  22.7 °C 29.84 in /  1010.4 hPa NW 3.2 mph /  5.1 km/h 5.8 mph /  9.3 km/h 52 % 0.00 in /  0 mm
13:13 93.1 °F /  33.9 °C 74.5 °F /  23.6 °C 29.83 in /  1010 hPa NW 1.2 mph /  1.9 km/h 5.8 mph /  9.3 km/h 55 % 0.00 in /  0 mm
13:18 93.3 °F /  34.1 °C 73.6 °F /  23.1 °C 29.83 in /  1010 hPa SW 2.2 mph /  3.5 km/h 3.5 mph /  5.6 km/h 53 % 0.00 in /  0 mm
13:23 93.5 °F /  34.2 °C 73.2 °F /  22.9 °C 29.83 in /  1010 hPa South 3.1 mph /  5 km/h 6.9 mph /  11.1 km/h 52 % 0.00 in /  0 mm
13:28 93.6 °F /  34.2 °C 73.9 °F /  23.3 °C 29.83 in /  1010 hPa NW 0.6 mph /  1 km/h 3.5 mph /  5.6 km/h 53 % 0.00 in /  0 mm
13:33 93.8 °F /  34.3 °C 76.3 °F /  24.6 °C 29.83 in /  1010 hPa NNW 0.9 mph /  1.4 km/h 1.2 mph /  1.9 km/h 57 % 0.00 in /  0 mm
13:38 93.9 °F /  34.4 °C 72.4 °F /  22.4 °C 29.83 in /  1010 hPa WNW 3.1 mph /  5 km/h 5.8 mph /  9.3 km/h 50 % 0.00 in /  0 mm
13:43 94.0 °F /  34.4 °C 74.3 °F /  23.5 °C 29.83 in /  1010 hPa West 1.7 mph /  2.7 km/h 4.6 mph /  7.4 km/h 53 % 0.00 in /  0 mm
13:49 94.2 °F /  34.6 °C 72.1 °F /  22.3 °C 29.83 in /  1010 hPa SSW 0.5 mph /  0.8 km/h 3.5 mph /  5.6 km/h 49 % 0.00 in /  0 mm
13:54 94.4 °F /  34.7 °C 73.5 °F /  23.1 °C 29.83 in /  1010 hPa WSW 4.3 mph /  6.9 km/h 7.0 mph /  11.3 km/h 51 % 0.00 in /  0 mm
13:59 94.4 °F /  34.7 °C 72.3 °F /  22.4 °C 29.82 in /  1009.7 hPa South 1.7 mph /  2.7 km/h 5.8 mph /  9.3 km/h 49 % 0.00 in /  0 mm
14:04 94.4 °F /  34.7 °C 74.1 °F /  23.4 °C 29.82 in /  1009.7 hPa Calm   1.2 mph /  1.9 km/h 52 % 0.00 in /  0 mm
14:09 94.4 °F /  34.7 °C 73.5 °F /  23.1 °C 29.82 in /  1009.7 hPa SW 1.6 mph /  2.6 km/h 3.5 mph /  5.6 km/h 51 % 0.00 in /  0 mm
14:14 94.4 °F /  34.7 °C 73.5 °F /  23.1 °C 29.82 in /  1009.7 hPa NW 3.1 mph /  5 km/h 4.6 mph /  7.4 km/h 51 % 0.00 in /  0 mm
14:19 94.4 °F /  34.7 °C 72.3 °F /  22.4 °C 29.82 in /  1009.7 hPa WSW 0.3 mph /  0.5 km/h 3.5 mph /  5.6 km/h 49 % 0.00 in /  0 mm
14:24 94.3 °F /  34.6 °C 72.2 °F /  22.3 °C 29.82 in /  1009.7 hPa WSW 3.1 mph /  5 km/h 6.0 mph /  9.7 km/h 49 % 0.00 in /  0 mm
14:29 94.3 °F /  34.6 °C 72.8 °F /  22.7 °C 29.82 in /  1009.7 hPa WSW 0.6 mph /  1 km/h 3.5 mph /  5.6 km/h 50 % 0.00 in /  0 mm
14:34 94.3 °F /  34.6 °C 72.2 °F /  22.3 °C 29.81 in /  1009.4 hPa SSW 4.0 mph /  6.4 km/h 5.0 mph /  8 km/h 49 % 0.00 in /  0 mm
14:39 94.3 °F /  34.6 °C 71.0 °F /  21.7 °C 29.81 in /  1009.4 hPa West 0.1 mph /  0.2 km/h 3.5 mph /  5.6 km/h 47 % 0.00 in /  0 mm
14:44 94.4 °F /  34.7 °C 71.1 °F /  21.7 °C 29.81 in /  1009.4 hPa West 5.2 mph /  8.4 km/h 9.2 mph /  14.8 km/h 47 % 0.00 in /  0 mm
14:46 94.3 °F /  34.6 °C 71.6 °F /  22 °C 29.81 in /  1009.4 hPa West 6.4 mph /  10.3 km/h 8.1 mph /  13 km/h 48 % 0.00 in /  0 mm
14:51 94.2 °F /  34.6 °C 71.5 °F /  21.9 °C 29.81 in /  1009.4 hPa SW 3.0 mph /  4.8 km/h 4.6 mph /  7.4 km/h 48 % 0.00 in /  0 mm
14:56 94.1 °F /  34.5 °C 72.0 °F /  22.2 °C 29.81 in /  1009.4 hPa SW 2.6 mph /  4.2 km/h 4.0 mph /  6.4 km/h 49 % 0.00 in /  0 mm
15:01 93.9 °F /  34.4 °C 71.8 °F /  22.1 °C 29.81 in /  1009.4 hPa SSW 3.6 mph /  5.8 km/h 5.8 mph /  9.3 km/h 49 % 0.00 in /  0 mm
15:06 93.7 °F /  34.3 °C 71.0 °F /  21.7 °C 29.81 in /  1009.4 hPa South 4.2 mph /  6.8 km/h 8.0 mph /  12.9 km/h 48 % 0.00 in /  0 mm
15:11 93.5 °F /  34.2 °C 70.9 °F /  21.6 °C 29.81 in /  1009.4 hPa SSW 2.9 mph /  4.7 km/h 5.8 mph /  9.3 km/h 48 % 0.00 in /  0 mm
15:16 93.4 °F /  34.1 °C 71.4 °F /  21.9 °C 29.81 in /  1009.4 hPa WSW 1.7 mph /  2.7 km/h 4.6 mph /  7.4 km/h 49 % 0.00 in /  0 mm
15:21 93.3 °F /  34.1 °C 71.3 °F /  21.8 °C 29.81 in /  1009.4 hPa SSW 2.1 mph /  3.4 km/h 4.6 mph /  7.4 km/h 49 % 0.00 in /  0 mm
15:26 93.2 °F /  34 °C 71.2 °F /  21.8 °C 29.81 in /  1009.4 hPa West 3.1 mph /  5 km/h 3.5 mph /  5.6 km/h 49 % 0.00 in /  0 mm
15:32 93.2 °F /  34 °C 70.6 °F /  21.4 °C 29.81 in /  1009.4 hPa WSW 3.1 mph /  5 km/h 8.1 mph /  13 km/h 48 % 0.00 in /  0 mm
15:37 93.2 °F /  34 °C 70.6 °F /  21.4 °C 29.80 in /  1009 hPa SSW 2.4 mph /  3.9 km/h 6.9 mph /  11.1 km/h 48 % 0.00 in /  0 mm
15:42 93.3 °F /  34.1 °C 71.3 °F /  21.8 °C 29.81 in /  1009.4 hPa WSW 3.3 mph /  5.3 km/h 4.6 mph /  7.4 km/h 49 % 0.00 in /  0 mm
15:47 93.5 °F /  34.2 °C 71.5 °F /  21.9 °C 29.81 in /  1009.4 hPa WSW 0.8 mph /  1.3 km/h 3.5 mph /  5.6 km/h 49 % 0.00 in /  0 mm
15:52 93.7 °F /  34.3 °C 71.7 °F /  22.1 °C 29.81 in /  1009.4 hPa West 2.7 mph /  4.3 km/h 4.6 mph /  7.4 km/h 49 % 0.00 in /  0 mm
15:57 93.9 °F /  34.4 °C 71.8 °F /  22.1 °C 29.81 in /  1009.4 hPa West 1.6 mph /  2.6 km/h 3.5 mph /  5.6 km/h 49 % 0.00 in /  0 mm
16:02 94.0 °F /  34.4 °C 72.5 °F /  22.5 °C 29.81 in /  1009.4 hPa Calm   4.6 mph /  7.4 km/h 50 % 0.00 in /  0 mm
16:07 94.1 °F /  34.5 °C 71.4 °F /  21.9 °C 29.81 in /  1009.4 hPa WSW 2.8 mph /  4.5 km/h 7.0 mph /  11.3 km/h 48 % 0.00 in /  0 mm
16:12 93.9 °F /  34.4 °C 70.0 °F /  21.1 °C 29.81 in /  1009.4 hPa WNW 5.0 mph /  8 km/h 6.9 mph /  11.1 km/h 46 % 0.00 in /  0 mm
16:17 93.6 °F /  34.2 °C 71.0 °F /  21.7 °C 29.81 in /  1009.4 hPa NW 0.4 mph /  0.6 km/h 1.2 mph /  1.9 km/h 48 % 0.00 in /  0 mm
16:22 93.7 °F /  34.3 °C 70.4 °F /  21.3 °C 29.81 in /  1009.4 hPa North 4.1 mph /  6.6 km/h 6.9 mph /  11.1 km/h 47 % 0.00 in /  0 mm
16:27 93.8 °F /  34.3 °C 70.5 °F /  21.4 °C 29.81 in /  1009.4 hPa WSW 1.5 mph /  2.4 km/h 4.0 mph /  6.4 km/h 47 % 0.00 in /  0 mm
16:32 93.9 °F /  34.4 °C 71.2 °F /  21.8 °C 29.81 in /  1009.4 hPa NW 0.9 mph /  1.4 km/h 3.5 mph /  5.6 km/h 48 % 0.00 in /  0 mm
16:37 94.0 °F /  34.4 °C 70.1 °F /  21.2 °C 29.81 in /  1009.4 hPa West 4.6 mph /  7.4 km/h 9.2 mph /  14.8 km/h 46 % 0.00 in /  0 mm
16:42 93.9 °F /  34.4 °C 70.0 °F /  21.1 °C 29.81 in /  1009.4 hPa WNW 2.4 mph /  3.9 km/h 6.9 mph /  11.1 km/h 46 % 0.00 in /  0 mm
16:47 93.8 °F /  34.3 °C 69.9 °F /  21.1 °C 29.81 in /  1009.4 hPa NW 1.1 mph /  1.8 km/h 2.3 mph /  3.7 km/h 46 % 0.00 in /  0 mm
16:52 93.6 °F /  34.2 °C 69.1 °F /  20.6 °C 29.80 in /  1009 hPa WSW 5.2 mph /  8.4 km/h 9.2 mph /  14.8 km/h 45 % 0.00 in /  0 mm
16:57 93.5 °F /  34.2 °C 70.2 °F /  21.2 °C 29.81 in /  1009.4 hPa WNW 4.1 mph /  6.6 km/h 7.0 mph /  11.3 km/h 47 % 0.00 in /  0 mm
17:02 93.4 °F /  34.1 °C 70.2 °F /  21.2 °C 29.80 in /  1009 hPa WNW 2.3 mph /  3.7 km/h 10.4 mph /  16.7 km/h 47 % 0.00 in /  0 mm
17:08 93.3 °F /  34.1 °C 69.4 °F /  20.8 °C 29.80 in /  1009 hPa West 4.0 mph /  6.4 km/h 6.0 mph /  9.7 km/h 46 % 0.00 in /  0 mm
17:10 93.2 °F /  34 °C 69.3 °F /  20.7 °C 29.80 in /  1009 hPa WNW 3.0 mph /  4.8 km/h 6.0 mph /  9.7 km/h 46 % 0.00 in /  0 mm
17:20 93.0 °F /  33.9 °C 69.8 °F /  21 °C 29.80 in /  1009 hPa West 2.7 mph /  4.3 km/h 8.1 mph /  13 km/h 47 % 0.00 in /  0 mm
17:31 92.8 °F /  33.8 °C 70.2 °F /  21.2 °C 29.80 in /  1009 hPa WNW 2.0 mph /  3.2 km/h 4.0 mph /  6.4 km/h 48 % 0.00 in /  0 mm
17:36 92.5 °F /  33.6 °C 69.9 °F /  21.1 °C 29.80 in /  1009 hPa WSW 2.0 mph /  3.2 km/h 8.0 mph /  12.9 km/h 48 % 0.00 in /  0 mm
17:41 92.3 °F /  33.5 °C 70.4 °F /  21.3 °C 29.80 in /  1009 hPa SSW 2.6 mph /  4.2 km/h 3.5 mph /  5.6 km/h 49 % 0.00 in /  0 mm
17:46 92.1 °F /  33.4 °C 70.2 °F /  21.2 °C 29.80 in /  1009 hPa WNW 3.3 mph /  5.3 km/h 4.0 mph /  6.4 km/h 49 % 0.00 in /  0 mm
17:50 91.9 °F /  33.3 °C 69.4 °F /  20.8 °C 29.80 in /  1009 hPa West 0.6 mph /  1 km/h 5.8 mph /  9.3 km/h 48 % 0.00 in /  0 mm
17:51 91.9 °F /  33.3 °C 69.4 °F /  20.8 °C 29.80 in /  1009 hPa West 0.8 mph /  1.3 km/h 2.3 mph /  3.7 km/h 48 % 0.00 in /  0 mm
17:56 91.6 °F /  33.1 °C 69.7 °F /  20.9 °C 29.80 in /  1009 hPa WNW 0.2 mph /  0.3 km/h 1.2 mph /  1.9 km/h 49 % 0.00 in /  0 mm
18:01 91.5 °F /  33.1 °C 69.6 °F /  20.9 °C 29.80 in /  1009 hPa NW 0.8 mph /  1.3 km/h 3.5 mph /  5.6 km/h 49 % 0.00 in /  0 mm
18:06 91.3 °F /  32.9 °C 69.5 °F /  20.8 °C 29.80 in /  1009 hPa West 1.6 mph /  2.6 km/h 3.5 mph /  5.6 km/h 49 % 0.00 in /  0 mm
18:11 91.1 °F /  32.8 °C 69.3 °F /  20.7 °C 29.80 in /  1009 hPa WNW 3.4 mph /  5.5 km/h 6.9 mph /  11.1 km/h 49 % 0.00 in /  0 mm
18:16 90.7 °F /  32.6 °C 68.3 °F /  20.2 °C 29.80 in /  1009 hPa West 4.2 mph /  6.8 km/h 6.9 mph /  11.1 km/h 48 % 0.00 in /  0 mm
18:21 90.3 °F /  32.4 °C 69.1 °F /  20.6 °C 29.80 in /  1009 hPa West 2.9 mph /  4.7 km/h 4.6 mph /  7.4 km/h 50 % 0.00 in /  0 mm
18:26 90.0 °F /  32.2 °C 68.3 °F /  20.2 °C 29.80 in /  1009 hPa West 2.5 mph /  4 km/h 4.6 mph /  7.4 km/h 49 % 0.00 in /  0 mm
18:31 89.9 °F /  32.2 °C 69.3 °F /  20.7 °C 29.80 in /  1009 hPa WNW 0.2 mph /  0.3 km/h 3.5 mph /  5.6 km/h 51 % 0.00 in /  0 mm
18:36 89.6 °F /  32 °C 68.5 °F /  20.3 °C 29.80 in /  1009 hPa West 0.2 mph /  0.3 km/h 2.3 mph /  3.7 km/h 50 % 0.00 in /  0 mm
18:41 89.3 °F /  31.8 °C 68.8 °F /  20.4 °C 29.80 in /  1009 hPa West 1.3 mph /  2.1 km/h 4.6 mph /  7.4 km/h 51 % 0.00 in /  0 mm
18:47 89.1 °F /  31.7 °C 69.2 °F /  20.7 °C 29.80 in /  1009 hPa WNW 0.6 mph /  1 km/h 4.6 mph /  7.4 km/h 52 % 0.00 in /  0 mm
18:52 88.9 °F /  31.6 °C 69.0 °F /  20.6 °C 29.80 in /  1009 hPa West 1.2 mph /  1.9 km/h 3.5 mph /  5.6 km/h 52 % 0.00 in /  0 mm
18:57 88.8 °F /  31.6 °C 69.5 °F /  20.8 °C 29.80 in /  1009 hPa West 3.7 mph /  6 km/h 8.1 mph /  13 km/h 53 % 0.00 in /  0 mm
19:02 88.8 °F /  31.6 °C 69.5 °F /  20.8 °C 29.80 in /  1009 hPa West 0.7 mph /  1.1 km/h 3.5 mph /  5.6 km/h 53 % 0.00 in /  0 mm
19:07 88.7 °F /  31.5 °C 69.4 °F /  20.8 °C 29.80 in /  1009 hPa SW 2.3 mph /  3.7 km/h 4.6 mph /  7.4 km/h 53 % 0.00 in /  0 mm
19:12 88.6 °F /  31.4 °C 69.3 °F /  20.7 °C 29.79 in /  1008.7 hPa WSW 0.2 mph /  0.3 km/h 1.2 mph /  1.9 km/h 53 % 0.00 in /  0 mm
19:17 88.4 °F /  31.3 °C 70.7 °F /  21.5 °C 29.80 in /  1009 hPa SSE 0.1 mph /  0.2 km/h 1.2 mph /  1.9 km/h 56 % 0.00 in /  0 mm
19:22 88.3 °F /  31.3 °C 70.1 °F /  21.2 °C 29.80 in /  1009 hPa Calm     55 % 0.00 in /  0 mm
19:27 88.1 °F /  31.2 °C 70.4 °F /  21.3 °C 29.80 in /  1009 hPa Calm     56 % 0.00 in /  0 mm
19:32 87.9 °F /  31.1 °C 70.8 °F /  21.6 °C 29.79 in /  1008.7 hPa Calm     57 % 0.00 in /  0 mm
19:37 87.6 °F /  30.9 °C 71.0 °F /  21.7 °C 29.79 in /  1008.7 hPa Calm     58 % 0.00 in /  0 mm
19:43 87.3 °F /  30.7 °C 70.7 °F /  21.5 °C 29.80 in /  1009 hPa Calm   1.2 mph /  1.9 km/h 58 % 0.00 in /  0 mm
19:48 87.0 °F /  30.6 °C 70.9 °F /  21.6 °C 29.80 in /  1009 hPa Calm     59 % 0.00 in /  0 mm
19:53 86.6 °F /  30.3 °C 71.1 °F /  21.7 °C 29.80 in /  1009 hPa Calm     60 % 0.00 in /  0 mm
19:58 86.3 °F /  30.2 °C 71.3 °F /  21.8 °C 29.80 in /  1009 hPa Calm     61 % 0.00 in /  0 mm
20:03 85.8 °F /  29.9 °C 71.3 °F /  21.8 °C 29.80 in /  1009 hPa Calm     62 % 0.00 in /  0 mm
20:08 85.4 °F /  29.7 °C 71.4 °F /  21.9 °C 29.80 in /  1009 hPa Calm     63 % 0.00 in /  0 mm
20:13 85.1 °F /  29.5 °C 71.1 °F /  21.7 °C 29.79 in /  1008.7 hPa Calm     63 % 0.00 in /  0 mm
20:14 85.0 °F /  29.4 °C 71.0 °F /  21.7 °C 29.79 in /  1008.7 hPa WNW 0.1 mph /  0.2 km/h 1.2 mph /  1.9 km/h 63 % 0.00 in /  0 mm
20:19 84.6 °F /  29.2 °C 71.1 °F /  21.7 °C 29.79 in /  1008.7 hPa Calm   1.2 mph /  1.9 km/h 64 % 0.00 in /  0 mm
20:24 84.3 °F /  29.1 °C 70.8 °F /  21.6 °C 29.79 in /  1008.7 hPa WNW 0.4 mph /  0.6 km/h 1.2 mph /  1.9 km/h 64 % 0.00 in /  0 mm
20:29 84.0 °F /  28.9 °C 70.5 °F /  21.4 °C 29.79 in /  1008.7 hPa Calm   1.2 mph /  1.9 km/h 64 % 0.00 in /  0 mm
20:34 83.7 °F /  28.7 °C 70.2 °F /  21.2 °C 29.79 in /  1008.7 hPa Calm   1.2 mph /  1.9 km/h 64 % 0.00 in /  0 mm
20:39 83.4 °F /  28.6 °C 69.9 °F /  21.1 °C 29.79 in /  1008.7 hPa West 1.0 mph /  1.6 km/h 3.5 mph /  5.6 km/h 64 % 0.00 in /  0 mm
20:45 83.2 °F /  28.4 °C 69.8 °F /  21 °C 29.79 in /  1008.7 hPa SW 0.3 mph /  0.5 km/h 3.5 mph /  5.6 km/h 64 % 0.00 in /  0 mm
20:49 83.0 °F /  28.3 °C 69.6 °F /  20.9 °C 29.80 in /  1009 hPa Calm   1.0 mph /  1.6 km/h 64 % 0.00 in /  0 mm
20:55 82.7 °F /  28.2 °C 69.7 °F /  20.9 °C 29.80 in /  1009 hPa SW 0.1 mph /  0.2 km/h 1.2 mph /  1.9 km/h 65 % 0.00 in /  0 mm
21:00 82.6 °F /  28.1 °C 70.1 °F /  21.2 °C 29.80 in /  1009 hPa Calm   1.0 mph /  1.6 km/h 66 % 0.00 in /  0 mm
21:05 82.5 °F /  28.1 °C 70.0 °F /  21.1 °C 29.80 in /  1009 hPa SW 0.1 mph /  0.2 km/h 1.2 mph /  1.9 km/h 66 % 0.00 in /  0 mm
21:10 82.3 °F /  27.9 °C 70.2 °F /  21.2 °C 29.81 in /  1009.4 hPa SW 0.1 mph /  0.2 km/h 1.2 mph /  1.9 km/h 67 % 0.00 in /  0 mm
21:15 82.1 °F /  27.8 °C 70.1 °F /  21.2 °C 29.81 in /  1009.4 hPa Calm     67 % 0.00 in /  0 mm
21:20 82.0 °F /  27.8 °C 70.0 °F /  21.1 °C 29.81 in /  1009.4 hPa Calm     67 % 0.00 in /  0 mm
21:25 81.8 °F /  27.7 °C 69.8 °F /  21 °C 29.81 in /  1009.4 hPa Calm     67 % 0.00 in /  0 mm
21:30 81.8 °F /  27.7 °C 70.2 °F /  21.2 °C 29.81 in /  1009.4 hPa Calm     68 % 0.00 in /  0 mm
21:35 81.7 °F /  27.6 °C 70.1 °F /  21.2 °C 29.81 in /  1009.4 hPa Calm     68 % 0.00 in /  0 mm
21:40 81.5 °F /  27.5 °C 69.9 °F /  21.1 °C 29.81 in /  1009.4 hPa Calm     68 % 0.00 in /  0 mm
21:45 81.4 °F /  27.4 °C 69.8 °F /  21 °C 29.81 in /  1009.4 hPa Calm   1.2 mph /  1.9 km/h 68 % 0.00 in /  0 mm
21:50 81.3 °F /  27.4 °C 69.7 °F /  20.9 °C 29.81 in /  1009.4 hPa Calm     68 % 0.00 in /  0 mm
21:56 81.2 °F /  27.3 °C 69.6 °F /  20.9 °C 29.81 in /  1009.4 hPa Calm   1.0 mph /  1.6 km/h 68 % 0.00 in /  0 mm
22:01 81.1 °F /  27.3 °C 70.0 °F /  21.1 °C 29.81 in /  1009.4 hPa Calm     69 % 0.00 in /  0 mm
22:06 81.0 °F /  27.2 °C 69.9 °F /  21.1 °C 29.81 in /  1009.4 hPa Calm     69 % 0.00 in /  0 mm
22:11 80.9 °F /  27.2 °C 69.8 °F /  21 °C 29.81 in /  1009.4 hPa Calm     69 % 0.00 in /  0 mm
22:16 80.8 °F /  27.1 °C 70.1 °F /  21.2 °C 29.81 in /  1009.4 hPa Calm     70 % 0.00 in /  0 mm
22:21 80.7 °F /  27.1 °C 70.0 °F /  21.1 °C 29.82 in /  1009.7 hPa Calm     70 % 0.00 in /  0 mm
22:26 80.6 °F /  27 °C 69.9 °F /  21.1 °C 29.82 in /  1009.7 hPa Calm     70 % 0.00 in /  0 mm
22:31 80.5 °F /  26.9 °C 70.2 °F /  21.2 °C 29.81 in /  1009.4 hPa Calm     71 % 0.00 in /  0 mm
22:36 80.5 °F /  26.9 °C 70.6 °F /  21.4 °C 29.81 in /  1009.4 hPa Calm     72 % 0.00 in /  0 mm
22:41 80.4 °F /  26.9 °C 70.9 °F /  21.6 °C 29.81 in /  1009.4 hPa Calm     73 % 0.00 in /  0 mm
22:46 80.3 °F /  26.8 °C 70.4 °F /  21.3 °C 29.81 in /  1009.4 hPa Calm     72 % 0.00 in /  0 mm
22:51 80.2 °F /  26.8 °C 70.4 °F /  21.3 °C 29.81 in /  1009.4 hPa Calm     72 % 0.00 in /  0 mm
22:57 80.2 °F /  26.8 °C 70.8 °F /  21.6 °C 29.81 in /  1009.4 hPa Calm     73 % 0.00 in /  0 mm
23:02 80.1 °F /  26.7 °C 71.1 °F /  21.7 °C 29.82 in /  1009.7 hPa Calm     74 % 0.00 in /  0 mm
23:07 80.0 °F /  26.7 °C 71.0 °F /  21.7 °C 29.81 in /  1009.4 hPa Calm     74 % 0.00 in /  0 mm
23:12 79.9 °F /  26.6 °C 70.9 °F /  21.6 °C 29.81 in /  1009.4 hPa Calm     74 % 0.00 in /  0 mm
23:17 79.8 °F /  26.6 °C 71.2 °F /  21.8 °C 29.82 in /  1009.7 hPa Calm   1.2 mph /  1.9 km/h 75 % 0.00 in /  0 mm
23:22 79.7 °F /  26.5 °C 70.7 °F /  21.5 °C 29.81 in /  1009.4 hPa Calm     74 % 0.00 in /  0 mm
23:27 79.6 °F /  26.4 °C 71.0 °F /  21.7 °C 29.81 in /  1009.4 hPa Calm   1.2 mph /  1.9 km/h 75 % 0.00 in /  0 mm
23:32 79.6 °F /  26.4 °C 71.4 °F /  21.9 °C 29.81 in /  1009.4 hPa Calm   1.0 mph /  1.6 km/h 76 % 0.00 in /  0 mm
23:37 79.5 °F /  26.4 °C 71.3 °F /  21.8 °C 29.82 in /  1009.7 hPa SW 0.1 mph /  0.2 km/h 1.2 mph /  1.9 km/h 76 % 0.00 in /  0 mm
23:42 79.4 °F /  26.3 °C 71.6 °F /  22 °C 29.81 in /  1009.4 hPa SW 0.5 mph /  0.8 km/h 2.0 mph /  3.2 km/h 77 % 0.00 in /  0 mm
23:47 79.3 °F /  26.3 °C 71.8 °F /  22.1 °C 29.82 in /  1009.7 hPa SSE 1.2 mph /  1.9 km/h 3.0 mph /  4.8 km/h 78 % 0.00 in /  0 mm
23:52 79.3 °F /  26.3 °C 71.8 °F /  22.1 °C 29.82 in /  1009.7 hPa South 0.3 mph /  0.5 km/h 1.2 mph /  1.9 km/h 78 % 0.00 in /  0 mm
23:57 79.2 °F /  26.2 °C 72.1 °F /  22.3 °C 29.81 in /  1009.4 hPa South 0.1 mph /  0.2 km/h 1.2 mph /  1.9 km/h 79 % 0.00 in /  0 mm
Crab Meadow Weather
Compliments of Weather Underground - 3 mb

Script developed by  Jim McMurry - jmcmurry@mwt.net Adapted for the template by  Wim van der Kuil - Leuven-Template.eu

Weather Terms: Flood Watch - Conditions are favorable for flash flooding in and close to the watch area. These watches are issued by the Weather Forecast Office in Upton and are usually for the first 12 to 24 hours of a forecast.